createdAt,value
2018-11-03T05:36:41.177Z,95708.91
2018-11-03T05:40:59.728Z,95714.19
2018-11-03T05:43:28.433Z,95716.92
2018-11-03T05:45:57.193Z,95712.93
2018-11-03T05:50:22.321Z,95717.13
2018-11-03T05:52:51.045Z,95718.45
2018-11-03T05:55:19.730Z,95723.89
2018-11-03T05:57:48.418Z,95721.42
2018-11-03T06:00:17.197Z,95720.41
2018-11-03T06:02:45.933Z,95723.72
2018-11-03T06:05:14.716Z,95722.84
2018-11-03T06:07:43.428Z,95730.53
2018-11-03T06:10:12.212Z,95729.55
2018-11-03T06:12:40.932Z,95730.66
2018-11-03T06:15:09.693Z,95736.53
2018-11-03T06:17:38.469Z,95732.11
2018-11-03T06:20:07.653Z,95740.05
2018-11-03T06:22:36.426Z,95741.73
2018-11-03T06:25:05.699Z,95740.96
2018-11-03T06:27:34.384Z,95744.71
2018-11-03T06:30:06.753Z,95744.52
2018-11-03T06:32:35.507Z,95745.14
2018-11-03T06:35:04.411Z,95744.78
2018-11-03T06:37:33.137Z,95740.31
2018-11-03T06:40:01.863Z,95744.09
2018-11-03T06:42:30.627Z,95744.50
2018-11-03T06:44:59.793Z,95738.75
2018-11-03T06:47:28.571Z,95742.34
2018-11-03T06:49:57.275Z,95739.18
2018-11-03T06:52:26.037Z,95744.30
2018-11-03T06:54:54.653Z,95742.81
2018-11-03T06:57:23.436Z,95741.63
2018-11-03T07:00:57.280Z,95744.59
2018-11-03T07:03:26.564Z,95741.86
2018-11-03T07:05:55.358Z,95746.11
2018-11-03T07:08:24.315Z,95747.59
2018-11-03T07:10:53.002Z,95738.42
2018-11-03T07:13:21.854Z,95736.17
2018-11-03T07:15:50.463Z,95744.04
2018-11-03T07:18:19.213Z,95738.72
2018-11-03T07:20:48.035Z,95743.02
2018-11-03T07:23:16.692Z,95746.78
2018-11-03T07:25:45.946Z,95740.31
2018-11-03T07:28:14.677Z,95745.55
2018-11-03T07:30:43.515Z,95743.81
2018-11-03T07:33:12.281Z,95741.77
2018-11-03T07:35:41.029Z,95735.42
2018-11-03T07:38:09.785Z,95738.36
2018-11-03T07:40:38.496Z,95732.86
2018-11-03T07:43:07.264Z,95732.44
2018-11-03T07:45:35.973Z,95734.59
2018-11-03T07:48:05.052Z,95734.47
2018-11-03T07:50:33.757Z,95736.95
2018-11-03T07:53:02.474Z,95740.37
2018-11-03T07:55:31.142Z,95732.37
2018-11-03T07:57:59.871Z,95731.11
2018-11-03T08:03:03.248Z,95735.91
2018-11-03T08:05:31.916Z,95733.31
2018-11-03T08:08:00.656Z,95731.84
2018-11-03T08:10:29.454Z,95724.31
2018-11-03T08:12:58.193Z,95722.02
2018-11-03T08:15:26.997Z,95714.03
2018-11-03T08:17:55.664Z,95713.22
2018-11-03T08:20:24.395Z,95711.22
2018-11-03T08:22:53.125Z,95711.50
2018-11-03T08:25:21.836Z,95700.50
2018-11-03T08:27:50.690Z,95707.70
2018-11-03T08:30:19.475Z,95706.00
2018-11-03T08:32:48.245Z,95704.50
2018-11-03T08:35:16.944Z,95700.19
2018-11-03T08:37:45.691Z,95692.34
2018-11-03T08:40:14.426Z,95691.95
2018-11-03T08:42:43.190Z,95693.27
2018-11-03T08:45:12.315Z,95695.78
2018-11-03T08:47:41.066Z,95694.39
2018-11-03T08:50:11.265Z,95686.91
2018-11-03T08:52:40.125Z,95685.41
2018-11-03T08:55:10.182Z,95685.42
2018-11-03T08:57:38.813Z,95672.28
2018-11-03T09:00:11.293Z,95669.41
2018-11-03T09:02:40.789Z,95677.09
2018-11-03T09:05:10.024Z,95671.56
2018-11-03T09:07:39.203Z,95671.89
2018-11-03T09:10:10.145Z,95669.22
2018-11-03T09:12:39.140Z,95665.77
2018-11-03T09:15:10.285Z,95659.67
2018-11-03T09:17:39.885Z,95661.58
2018-11-03T09:20:09.667Z,95655.35
2018-11-03T09:22:39.024Z,95648.48
2018-11-03T09:25:10.000Z,95652.22
2018-11-03T09:27:39.340Z,95647.05
2018-11-03T09:30:10.647Z,95650.11
2018-11-03T09:32:39.448Z,95636.53
2018-11-03T09:35:08.920Z,95636.66
2018-11-03T09:37:37.587Z,95628.13
2018-11-03T09:40:08.178Z,95634.44
2018-11-03T09:42:36.913Z,95629.59
2018-11-03T09:45:06.173Z,95629.51
2018-11-03T09:47:34.852Z,95626.78
2018-11-03T09:50:03.730Z,95618.72
2018-11-03T09:52:32.700Z,95615.76
2018-11-03T09:55:01.425Z,95606.70
2018-11-03T09:57:30.225Z,95609.59
2018-11-03T09:59:58.911Z,95605.63
2018-11-03T10:02:27.646Z,95603.05
2018-11-03T10:04:56.333Z,95600.77
2018-11-03T10:07:25.107Z,95598.48
2018-11-03T10:09:53.909Z,95589.29
2018-11-03T10:12:23.457Z,95585.97
2018-11-03T10:14:52.190Z,95576.98
2018-11-03T10:17:20.922Z,95568.45
2018-11-03T10:19:49.642Z,95568.75
2018-11-03T10:22:18.683Z,95564.00
2018-11-03T10:24:47.533Z,95565.70
2018-11-03T10:27:16.362Z,95555.11
2018-11-03T10:29:45.118Z,95547.92
2018-11-03T10:32:14.087Z,95547.41
2018-11-03T10:34:51.234Z,95547.17
2018-11-03T10:37:20.019Z,95543.00
2018-11-03T10:39:48.688Z,95537.47
2018-11-03T10:42:17.416Z,95538.95
2018-11-03T10:44:46.073Z,95531.46
2018-11-03T10:47:14.758Z,95529.58
2018-11-03T10:49:43.818Z,95528.07
2018-11-03T10:52:13.486Z,95521.80
2018-11-03T10:54:42.269Z,95526.10
2018-11-03T10:57:11.463Z,95521.13
2018-11-03T10:59:40.204Z,95514.11
2018-11-03T11:02:14.012Z,95505.73
2018-11-03T11:04:47.927Z,95502.75
2018-11-03T11:07:21.779Z,95496.35
2018-11-03T11:09:55.665Z,95498.88
2018-11-03T11:12:29.625Z,95501.31
2018-11-03T11:14:58.406Z,95490.68
2018-11-03T11:17:27.105Z,95490.56
2018-11-03T11:19:55.766Z,95485.89
2018-11-03T11:22:24.493Z,95481.59
2018-11-03T11:24:53.322Z,95473.70
2018-11-03T11:27:22.014Z,95469.77
2018-11-03T11:29:50.768Z,95465.03
2018-11-03T11:32:19.540Z,95461.00
2018-11-03T11:34:51.247Z,95457.44
2018-11-03T11:37:20.020Z,95447.88
2018-11-03T11:39:48.669Z,95447.86
2018-11-03T11:42:17.531Z,95438.78
2018-11-03T11:44:46.165Z,95441.73
2018-11-03T11:47:14.809Z,95443.45
2018-11-03T11:49:43.484Z,95439.19
2018-11-03T11:52:12.197Z,95437.59
2018-11-03T11:54:41.056Z,95428.31
2018-11-03T11:57:09.728Z,95434.09
2018-11-03T11:59:38.497Z,95429.09
2018-11-03T12:02:07.312Z,95423.80
2018-11-03T12:04:36.044Z,95415.25
2018-11-03T12:07:04.770Z,95416.58
2018-11-03T12:09:33.510Z,95417.95
2018-11-03T12:12:02.218Z,95415.02
2018-11-03T12:14:30.912Z,95415.90
2018-11-03T12:16:59.581Z,95413.50
2018-11-03T12:19:28.264Z,95409.56
2018-11-03T12:21:56.924Z,95405.87
2018-11-03T12:24:25.641Z,95409.69
2018-11-03T12:26:54.298Z,95412.59
2018-11-03T12:29:22.978Z,95410.28
2018-11-03T12:31:51.662Z,95406.20
2018-11-03T12:34:20.408Z,95407.48
2018-11-03T12:36:49.053Z,95409.61
2018-11-03T12:39:17.841Z,95402.44
2018-11-03T12:41:46.605Z,95401.95
2018-11-03T12:44:15.306Z,95403.24
2018-11-03T12:46:44.082Z,95407.16
2018-11-03T12:49:12.747Z,95403.73
2018-11-03T12:51:41.560Z,95408.27
2018-11-03T12:54:10.262Z,95410.07
2018-11-03T12:56:38.949Z,95406.09
2018-11-03T12:59:07.747Z,95405.31
2018-11-03T13:01:36.368Z,95405.57
2018-11-03T13:04:05.208Z,95412.08
2018-11-03T13:06:33.916Z,95403.16
2018-11-03T13:09:02.764Z,95406.48
2018-11-03T13:11:31.418Z,95407.44
2018-11-03T13:14:00.152Z,95409.40
2018-11-03T13:16:28.850Z,95402.16
2018-11-03T13:18:57.537Z,95408.66
2018-11-03T13:21:26.319Z,95408.27
2018-11-03T13:23:55.016Z,95409.03
2018-11-03T13:26:23.682Z,95404.31
2018-11-03T13:28:52.357Z,95409.94
2018-11-03T13:31:21.049Z,95408.56
2018-11-03T13:33:49.781Z,95419.83
2018-11-03T13:36:18.558Z,95414.34
2018-11-03T13:38:47.829Z,95408.25
2018-11-03T13:41:16.524Z,95408.47
2018-11-03T13:43:45.250Z,95410.03
2018-11-03T13:46:14.038Z,95406.61
2018-11-03T13:48:42.669Z,95408.20
2018-11-03T13:51:11.349Z,95402.05
2018-11-03T13:53:39.998Z,95395.83
2018-11-03T13:56:08.761Z,95400.32
2018-11-03T13:58:37.455Z,95401.53
2018-11-03T14:01:06.510Z,95405.66
2018-11-03T14:03:35.836Z,95404.83
2018-11-03T14:06:04.589Z,95399.95
2018-11-03T14:08:33.966Z,95400.79
2018-11-03T14:11:02.638Z,95405.81
2018-11-03T14:13:31.278Z,95398.39
2018-11-03T14:15:59.952Z,95407.02
2018-11-03T14:18:28.641Z,95401.50
2018-11-03T14:20:57.327Z,95403.22
2018-11-03T14:23:26.113Z,95409.73
2018-11-03T14:25:54.758Z,95413.19
2018-11-03T14:28:23.704Z,95417.78
2018-11-03T14:30:52.406Z,95417.48
